Time;durP1;ratioP1;P1;durP2;ratioP2;P2;SDS_P1;SDS_P2;PMS_P1;PMS_P2;Temp;Humidity;BMP_temperature;BMP_pressure;BME280_temperature;BME280_humidity;BME280_pressure;Samples;Min_cycle;Max_cycle;Signal;HPM_P1;HPM_P2
2023/09/25 00:02:07;;;;;;;;;;;;;;;18.80;100.00;99845.53;4992623;28;816;-59
2023/09/25 00:04:34;;;;;;;;;;;;;;;18.79;100.00;99843.97;4992652;28;1957;-59
2023/09/25 00:07:03;;;;;;;;;;;;;;;18.76;100.00;99850.47;4992565;28;829;-59
2023/09/25 00:09:30;;;;;;;;;;;;;;;18.77;100.00;99846.41;4992342;28;875;-59
2023/09/25 00:11:57;;;;;;;;;;;;;;;18.76;100.00;99850.47;4975127;28;1298;-59
2023/09/25 00:14:24;;;;;;;;;;;;;;;18.76;100.00;99839.25;4992638;28;1223;-59
2023/09/25 00:16:50;;;;;;;;;;;;;;;18.74;100.00;99836.91;4992647;28;828;-59
2023/09/25 00:19:17;;;;;;;;;;;;;;;18.79;100.00;99843.97;4975042;28;883;-59
2023/09/25 00:21:43;;;;;;;;;;;;;;;18.82;100.00;99843.06;4992405;28;885;-59
2023/09/25 00:24:10;;;;;;;;;;;;;;;18.77;100.00;99841.56;4992702;28;1968;-59
2023/09/25 00:26:37;;;;;;;;;;;;;;;18.71;100.00;99834.22;4992303;28;837;-59
2023/09/25 00:29:03;;;;;;;;;;;;;;;18.61;100.00;99836.22;4992480;28;842;-59
2023/09/25 00:31:29;;;;;;;;;;;;;;;18.61;100.00;99832.63;4992333;28;864;-59
2023/09/25 00:33:56;;;;;;;;;;;;;;;18.56;100.00;99829.19;4992386;28;880;-59
2023/09/25 00:36:22;;;;;;;;;;;;;;;18.67;100.00;99834.38;4992271;28;903;-59
2023/09/25 00:38:49;;;;;;;;;;;;;;;18.73;100.00;99838.16;4992331;28;804;-59
2023/09/25 00:41:16;;;;;;;;;;;;;;;18.77;100.00;99835.22;4974805;28;1220;-59
2023/09/25 00:43:42;;;;;;;;;;;;;;;18.85;100.00;99839.31;4992168;28;895;-59
2023/09/25 00:46:09;;;;;;;;;;;;;;;18.95;100.00;99838.13;4992195;28;2187;-59
2023/09/25 00:48:36;;;;;;;;;;;;;;;18.92;100.00;99838.28;4992213;28;817;-59
2023/09/25 00:51:04;;;;;;;;;;;;;;;18.89;100.00;99839.97;4992208;28;880;-59
2023/09/25 00:53:31;;;;;;;;;;;;;;;18.90;100.00;99835.16;4992144;28;825;-59
2023/09/25 00:55:58;;;;;;;;;;;;;;;18.89;100.00;99828.78;4992036;28;899;-59
2023/09/25 00:58:25;;;;;;;;;;;;;;;18.93;100.00;99832.22;4992375;28;884;-59
2023/09/25 01:00:53;;;;;;;;;;;;;;;18.96;100.00;99831.28;4992144;28;822;-60
2023/09/25 01:03:18;;;;;;;;;;;;;;;18.99;100.00;99829.59;4992047;28;911;-59
2023/09/25 01:05:46;;;;;;;;;;;;;;;18.99;100.00;99824.00;4991990;28;1898;-59
2023/09/25 01:08:12;;;;;;;;;;;;;;;18.97;100.00;99827.25;4992109;28;839;-59
2023/09/25 01:10:40;;;;;;;;;;;;;;;19.00;100.00;99827.59;4974501;28;924;-59
2023/09/25 01:13:09;;;;;;;;;;;;;;;19.09;100.00;99824.81;4992348;28;944;-59
2023/09/25 01:15:36;;;;;;;;;;;;;;;19.13;100.00;99826.22;4991801;28;1413;-60
2023/09/25 01:18:03;;;;;;;;;;;;;;;19.09;100.00;99825.59;4991956;28;907;-59
2023/09/25 01:20:30;;;;;;;;;;;;;;;19.03;100.00;99826.66;4992678;28;868;-59
2023/09/25 01:22:57;;;;;;;;;;;;;;;19.03;100.00;99833.03;4995674;28;861;-59
2023/09/25 01:25:23;;;;;;;;;;;;;;;19.07;100.00;99830.88;4995358;28;1978;-59
2023/09/25 01:27:50;;;;;;;;;;;;;;;19.06;100.00;99829.31;4995421;28;820;-59
2023/09/25 01:30:18;;;;;;;;;;;;;;;19.05;100.00;99824.94;4995452;28;812;-59
2023/09/25 01:32:46;;;;;;;;;;;;;;;19.08;100.00;99823.25;4995304;28;952;-59
2023/09/25 01:35:17;;;;;;;;;;;;;;;19.10;100.00;99826.38;4995376;28;879;-60
2023/09/25 01:37:44;;;;;;;;;;;;;;;19.10;100.00;99821.56;4995441;28;865;-59
2023/09/25 01:40:14;;;;;;;;;;;;;;;19.12;100.00;99824.69;4995520;28;801;-59
2023/09/25 01:42:40;;;;;;;;;;;;;;;19.17;100.00;99826.09;4977690;28;1324;-59
2023/09/25 01:45:08;;;;;;;;;;;;;;;19.22;100.00;99827.50;4995344;28;1953;-59
2023/09/25 01:47:35;;;;;;;;;;;;;;;19.21;100.00;99831.56;4995200;28;888;-59
2023/09/25 01:50:03;;;;;;;;;;;;;;;19.17;100.00;99829.66;4995071;28;836;-59
2023/09/25 01:52:30;;;;;;;;;;;;;;;19.13;100.00;99839.47;4995175;28;829;-59
2023/09/25 01:54:57;;;;;;;;;;;;;;;19.14;100.00;99841.81;4994919;28;1050;-59
2023/09/25 01:57:24;;;;;;;;;;;;;;;19.19;100.00;99832.00;4995035;28;867;-59
2023/09/25 01:59:50;;;;;;;;;;;;;;;19.26;100.00;99836.53;4994852;28;1002;-59
2023/09/25 02:02:18;;;;;;;;;;;;;;;19.26;100.00;99836.53;4994971;28;832;-59
2023/09/25 02:04:44;;;;;;;;;;;;;;;19.18;100.00;99838.84;4994754;28;1938;-59
2023/09/25 02:07:11;;;;;;;;;;;;;;;19.12;100.00;99847.09;4994826;28;871;-59
2023/09/25 02:09:38;;;;;;;;;;;;;;;19.13;100.00;99837.44;4994699;28;798;-59
2023/09/25 02:12:05;;;;;;;;;;;;;;;19.19;100.00;99843.22;4994667;28;968;-59
2023/09/25 02:14:32;;;;;;;;;;;;;;;19.23;100.00;99849.47;4994370;28;1294;-59
2023/09/25 02:16:59;;;;;;;;;;;;;;;19.27;100.00;99850.09;4994550;28;872;-59
2023/09/25 02:19:28;;;;;;;;;;;;;;;19.28;100.00;99846.03;4994588;28;805;-59
2023/09/25 02:21:55;;;;;;;;;;;;;;;19.32;100.00;99845.91;4994460;28;901;-59
2023/09/25 02:24:21;;;;;;;;;;;;;;;19.33;100.00;99842.66;4994327;28;1965;-59
2023/09/25 02:26:48;;;;;;;;;;;;;;;19.29;100.00;99853.22;4994334;28;898;-59
2023/09/25 02:29:15;;;;;;;;;;;;;;;19.22;100.00;99853.50;4994306;28;860;-59
2023/09/25 02:31:40;;;;;;;;;;;;;;;19.20;100.00;99853.16;4994035;28;860;-59
2023/09/25 02:34:14;;;;;;;;;;;;;;;19.17;100.00;99856.91;4993817;28;891;-59
2023/09/25 02:36:41;;;;;;;;;;;;;;;19.16;100.00;99855.34;4977041;28;1308;-59
2023/09/25 02:39:09;;;;;;;;;;;;;;;19.14;100.00;99855.03;4994370;28;895;-59
2023/09/25 02:41:36;;;;;;;;;;;;;;;19.06;100.00;99860.13;4994230;28;895;-59
2023/09/25 02:44:02;;;;;;;;;;;;;;;19.03;100.00;99863.84;4993990;28;1886;-59
2023/09/25 02:46:29;;;;;;;;;;;;;;;18.98;100.00;99844.84;4994156;28;876;-59
2023/09/25 02:48:56;;;;;;;;;;;;;;;18.96;100.00;99841.72;4994095;28;825;-59
2023/09/25 02:51:23;;;;;;;;;;;;;;;18.88;100.00;99855.22;4994004;28;790;-59
2023/09/25 02:53:51;;;;;;;;;;;;;;;18.91;100.00;99848.69;4993859;28;923;-59
2023/09/25 02:56:18;;;;;;;;;;;;;;;18.95;100.00;99852.13;4993886;28;831;-60
2023/09/25 02:58:45;;;;;;;;;;;;;;;18.95;100.00;99854.94;4994052;28;833;-59
2023/09/25 03:01:11;;;;;;;;;;;;;;;18.97;100.00;99860.09;4993696;28;856;-59
2023/09/25 03:03:39;;;;;;;;;;;;;;;18.97;100.00;99860.09;4994079;28;883;-59
2023/09/25 03:06:05;;;;;;;;;;;;;;;18.99;100.00;99849.22;4993598;28;1894;-60
2023/09/25 03:08:32;;;;;;;;;;;;;;;18.94;100.00;99858.19;4993826;28;875;-59
2023/09/25 03:10:58;;;;;;;;;;;;;;;18.92;100.00;99852.28;4993878;28;821;-59
2023/09/25 03:13:25;;;;;;;;;;;;;;;19.09;100.00;99852.81;4976309;28;1308;-59
2023/09/25 03:15:52;;;;;;;;;;;;;;;19.22;100.00;99856.28;4993611;28;1372;-59
2023/09/25 03:18:19;;;;;;;;;;;;;;;19.40;100.00;99857.63;4993575;28;1216;-59
2023/09/25 03:20:46;;;;;;;;;;;;;;;19.40;100.00;99852.03;4993673;28;954;-59
2023/09/25 03:23:12;;;;;;;;;;;;;;;19.36;100.00;99852.94;4993348;28;884;-59
2023/09/25 03:25:40;;;;;;;;;;;;;;;19.32;100.00;99852.28;4993293;28;1914;-59
2023/09/25 03:28:07;;;;;;;;;;;;;;;19.32;100.00;99848.72;4993357;28;1250;-59
2023/09/25 03:30:34;;;;;;;;;;;;;;;19.31;100.00;99852.75;4993509;28;1250;-59
2023/09/25 03:33:01;;;;;;;;;;;;;;;19.36;100.00;99846.56;4993296;28;1296;-59
2023/09/25 03:35:26;;;;;;;;;;;;;;;19.35;100.00;99845.78;4993599;28;829;-59
2023/09/25 03:37:54;;;;;;;;;;;;;;;19.35;100.00;99842.19;4993327;28;864;-59
2023/09/25 03:40:21;;;;;;;;;;;;;;;19.29;100.00;99835.63;4993591;28;891;-59
2023/09/25 03:42:48;;;;;;;;;;;;;;;19.31;100.00;99838.72;4993147;28;1237;-59
2023/09/25 03:45:14;;;;;;;;;;;;;;;19.25;100.00;99838.56;4991981;28;1891;-59
2023/09/25 03:47:41;;;;;;;;;;;;;;;19.27;100.00;99844.50;4992939;28;852;-59
2023/09/25 03:50:09;;;;;;;;;;;;;;;19.32;100.00;99834.72;4992824;28;888;-59
2023/09/25 03:52:36;;;;;;;;;;;;;;;19.32;100.00;99843.13;4993058;28;1378;-60
2023/09/25 03:55:03;;;;;;;;;;;;;;;19.32;100.00;99838.28;4975322;28;1213;-59
2023/09/25 03:57:30;;;;;;;;;;;;;;;19.34;100.00;99844.19;4992844;28;1238;-59
2023/09/25 03:59:56;;;;;;;;;;;;;;;19.38;100.00;99844.84;4992763;28;906;-59
2023/09/25 04:02:25;;;;;;;;;;;;;;;19.34;100.00;99847.00;4975234;28;1208;-59
2023/09/25 04:04:52;;;;;;;;;;;;;;;19.40;100.00;99850.00;4992800;28;1894;-59
2023/09/25 04:07:19;;;;;;;;;;;;;;;19.43;100.00;99853.88;4992836;28;853;-59
2023/09/25 04:09:47;;;;;;;;;;;;;;;19.47;100.00;99854.53;4992844;28;876;-59
2023/09/25 04:12:14;;;;;;;;;;;;;;;19.48;100.00;99858.88;4992700;28;1017;-60
2023/09/25 04:14:42;;;;;;;;;;;;;;;19.42;100.00;99861.53;4992515;28;1240;-60
2023/09/25 04:17:10;;;;;;;;;;;;;;;19.43;100.00;99860.25;4992784;28;880;-60
2023/09/25 04:19:37;;;;;;;;;;;;;;;19.48;100.00;99858.88;4992512;28;811;-60
2023/09/25 04:22:06;;;;;;;;;;;;;;;19.54;100.00;99857.84;4992289;28;833;-60
2023/09/25 04:24:41;;;;;;;;;;;;;;;19.62;100.00;99868.75;4992392;28;1914;-59
2023/09/25 04:27:15;;;;;;;;;;;;;;;19.63;100.00;99865.47;4992144;28;1220;-59
2023/09/25 04:29:42;;;;;;;;;;;;;;;19.62;100.00;99858.28;4992738;28;801;-59
2023/09/25 04:32:09;;;;;;;;;;;;;;;19.67;100.00;99856.91;4992691;28;825;-60
2023/09/25 04:34:36;;;;;;;;;;;;;;;19.72;100.00;99861.94;4992447;28;1330;-59
2023/09/25 04:37:02;;;;;;;;;;;;;;;19.72;100.00;99859.13;4992616;28;861;-59
2023/09/25 04:39:28;;;;;;;;;;;;;;;19.72;100.00;99873.94;4992315;28;884;-59
2023/09/25 04:41:56;;;;;;;;;;;;;;;19.78;100.00;99871.31;4992151;28;828;-59
2023/09/25 04:44:23;;;;;;;;;;;;;;;19.86;100.00;99875.34;4992169;28;1886;-59
2023/09/25 04:46:50;;;;;;;;;;;;;;;19.91;100.00;99873.97;4992213;28;845;-59
2023/09/25 04:49:17;;;;;;;;;;;;;;;19.90;100.00;99875.22;4992434;28;801;-59
2023/09/25 04:51:46;;;;;;;;;;;;;;;19.86;100.00;99883.75;4992116;28;833;-59
2023/09/25 04:54:12;;;;;;;;;;;;;;;19.86;100.00;99878.16;4992234;28;1205;-59
2023/09/25 04:56:40;;;;;;;;;;;;;;;19.93;100.00;99874.28;4995005;28;833;-59
2023/09/25 04:59:06;;;;;;;;;;;;;;;20.02;100.00;99884.75;4978624;28;1475;-59
2023/09/25 05:01:32;;;;;;;;;;;;;;;20.04;100.00;99877.41;4996336;28;1306;-59
2023/09/25 05:04:00;;;;;;;;;;;;;;;20.09;100.00;99879.59;4996104;28;1956;-59
2023/09/25 05:06:27;;;;;;;;;;;;;;;20.12;100.00;99880.69;4995914;28;872;-59
2023/09/25 05:08:53;;;;;;;;;;;;;;;20.14;100.00;99876.19;4996095;28;1278;-59
2023/09/25 05:11:24;;;;;;;;;;;;;;;20.21;100.00;99889.13;4995731;28;912;-59
2023/09/25 05:13:51;;;;;;;;;;;;;;;20.29;100.00;99886.75;4995921;28;1136;-59
2023/09/25 05:16:18;;;;;;;;;;;;;;;20.30;100.00;99883.50;4996088;28;786;-60
2023/09/25 05:18:45;;;;;;;;;;;;;;;20.21;100.00;99861.06;4995720;28;874;-60
2023/09/25 05:21:11;;;;;;;;;;;;;;;20.31;100.00;99862.63;4995588;28;880;-60
2023/09/25 05:23:38;;;;;;;;;;;;;;;20.57;100.00;99885.56;4995812;28;876;-59
2023/09/25 05:26:05;;;;;;;;;;;;;;;20.76;100.00;99883.50;4995416;28;1903;-61
2023/09/25 05:28:32;;;;;;;;;;;;;;;20.84;100.00;99895.16;4995667;28;904;-59
2023/09/25 05:30:58;;;;;;;;;;;;;;;20.87;100.00;99887.81;4995898;28;821;-59
2023/09/25 05:33:33;;;;;;;;;;;;;;;20.88;100.00;99881.75;4995676;28;875;-59
2023/09/25 05:36:00;;;;;;;;;;;;;;;20.89;100.00;99885.31;4977878;28;1277;-59
2023/09/25 05:38:26;;;;;;;;;;;;;;;20.92;100.00;99882.34;4995273;28;887;-59
2023/09/25 05:40:53;;;;;;;;;;;;;;;20.94;100.00;99890.31;4995529;28;825;-60
2023/09/25 05:43:19;;;;;;;;;;;;;;;21.03;100.00;99881.09;4995219;28;853;-59
2023/09/25 05:45:47;;;;;;;;;;;;;;;21.09;100.00;99891.22;4995129;28;1977;-59
2023/09/25 05:48:14;;;;;;;;;;;;;;;21.17;100.00;99891.66;4995099;28;860;-59
2023/09/25 05:50:45;;;;;;;;;;;;;;;21.26;100.00;99893.66;4994984;28;863;-59
2023/09/25 05:53:14;;;;;;;;;;;;;;;21.35;100.00;99894.38;4995065;28;875;-59
2023/09/25 05:55:40;;;;;;;;;;;;;;;21.38;100.00;99890.63;4995028;28;876;-59
2023/09/25 05:58:07;;;;;;;;;;;;;;;21.40;100.00;99882.50;4994965;28;836;-59
2023/09/25 06:00:34;;;;;;;;;;;;;;;21.47;100.00;99894.69;4994921;28;907;-59
2023/09/25 06:03:01;;;;;;;;;;;;;;;21.45;100.00;99892.34;4994818;28;868;-59
2023/09/25 06:05:28;;;;;;;;;;;;;;;21.48;100.00;99891.38;4994768;28;1947;-59
2023/09/25 06:07:54;;;;;;;;;;;;;;;21.53;100.00;99873.09;4993800;28;891;-59
2023/09/25 06:10:23;;;;;;;;;;;;;;;21.59;100.00;99888.84;4994701;28;888;-59
2023/09/25 06:12:50;;;;;;;;;;;;;;;21.59;100.00;99893.69;4994790;28;973;-59
2023/09/25 06:15:18;;;;;;;;;;;;;;;21.69;100.00;99878.31;4976712;28;1445;-59
2023/09/25 06:17:47;;;;;;;;;;;;;;;21.81;100.00;99884.97;4994496;28;875;-59
2023/09/25 06:20:15;;;;;;;;;;;;;;;22.06;100.00;99892.13;4994492;28;836;-59
2023/09/25 06:22:43;;;;;;;;;;;;;;;22.28;100.00;99896.72;4994422;28;856;-59
2023/09/25 06:25:18;;;;;;;;;;;;;;;22.52;100.00;99893.84;4976894;28;1883;-59
2023/09/25 06:27:45;;;;;;;;;;;;;;;23.01;100.00;99912.19;4994462;28;856;-59
2023/09/25 06:30:12;;;;;;;;;;;;;;;23.33;100.00;99920.91;4994351;28;884;-59
2023/09/25 06:32:42;;;;;;;;;;;;;;;23.63;100.00;99915.97;4994289;28;882;-59
2023/09/25 06:35:09;;;;;;;;;;;;;;;23.67;100.00;99921.44;4994310;28;964;-59
2023/09/25 06:37:36;;;;;;;;;;;;;;;23.74;100.00;99926.66;4994268;28;837;-58
2023/09/25 06:40:09;;;;;;;;;;;;;;;23.72;100.00;99918.69;4994103;28;840;-59
2023/09/25 07:13:37;;;;;;;;;;;;;;;27.55;100.00;99925.47;5286431;23;1797;-58
2023/09/25 07:16:05;;;;;;;;;;;;;;;27.48;100.00;99935.25;4974120;28;828;-59
2023/09/25 07:18:32;;;;;;;;;;;;;;;27.08;100.00;99935.25;4973909;28;974;-57
2023/09/25 07:20:58;;;;;;;;;;;;;;;27.09;100.00;99941.69;4974076;28;867;-59
2023/09/25 07:23:25;;;;;;;;;;;;;;;27.01;100.00;99947.13;4973923;28;797;-59
2023/09/25 07:26:01;;;;;;;;;;;;;;;27.29;100.00;99946.38;4973971;28;1973;-58
2023/09/25 07:28:28;;;;;;;;;;;;;;;27.01;100.00;99940.66;4973786;28;847;-60
2023/09/25 07:30:55;;;;;;;;;;;;;;;26.76;100.00;99950.94;4973838;28;925;-59
2023/09/25 07:33:22;;;;;;;;;;;;;;;26.64;100.00;99953.72;4973802;28;902;-59
2023/09/25 07:35:50;;;;;;;;;;;;;;;26.34;100.00;99946.91;4973803;28;876;-58
2023/09/25 07:38:17;;;;;;;;;;;;;;;26.05;100.00;99945.97;4956247;28;1202;-59
2023/09/25 07:40:44;;;;;;;;;;;;;;;25.61;100.00;99942.34;4973729;28;824;-58
2023/09/25 07:43:11;;;;;;;;;;;;;;;25.47;100.00;99946.09;4973496;28;904;-59
2023/09/25 07:45:38;;;;;;;;;;;;;;;25.44;100.00;99939.41;4973699;28;1879;-59
2023/09/25 07:48:05;;;;;;;;;;;;;;;25.55;100.00;99943.59;4956173;28;1469;-59
2023/09/25 07:50:34;;;;;;;;;;;;;;;25.62;100.00;99941.06;4973514;28;876;-59
2023/09/25 07:53:01;;;;;;;;;;;;;;;25.80;100.00;99939.16;4973476;28;887;-59
2023/09/25 07:55:27;;;;;;;;;;;;;;;26.18;100.00;99942.69;4973410;28;860;-59
2023/09/25 07:57:54;;;;;;;;;;;;;;;26.24;100.00;99935.81;4973385;28;837;-58
2023/09/25 08:02:49;;;;;;;;;;;;;;;26.54;100.00;99948.78;4973361;28;807;-59
2023/09/25 08:05:18;;;;;;;;;;;;;;;26.62;100.00;99932.84;4973150;28;1894;-58
2023/09/25 08:07:48;;;;;;;;;;;;;;;26.68;100.00;99922.31;4973198;28;861;-59
2023/09/25 08:10:17;;;;;;;;;;;;;;;26.74;100.00;99925.16;4973396;28;1191;-58
2023/09/25 08:12:44;;;;;;;;;;;;;;;26.57;100.00;99911.72;4973083;28;1379;-58
2023/09/25 08:15:10;;;;;;;;;;;;;;;26.80;100.00;99917.41;4973373;28;821;-58
2023/09/25 08:17:37;;;;;;;;;;;;;;;26.94;100.00;99907.13;4955963;28;1293;-59
2023/09/25 08:20:16;;;;;;;;;;;;;;;26.49;100.00;99925.56;4971994;28;1295;-59
2023/09/25 08:22:44;;;;;;;;;;;;;;;26.34;100.00;99921.41;4973000;28;930;-58
2023/09/25 08:25:10;;;;;;;;;;;;;;;26.83;100.00;99922.06;4973041;28;1910;-59
2023/09/25 08:27:40;;;;;;;;;;;;;;;27.26;100.00;99921.88;4973033;28;808;-58
2023/09/25 08:30:08;;;;;;;;;;;;;;;27.47;100.00;99917.47;4972416;28;931;-59
2023/09/25 08:32:35;;;;;;;;;;;;;;;28.16;100.00;99918.09;4972969;28;949;-58
2023/09/25 08:35:03;;;;;;;;;;;;;;;28.16;100.00;99918.88;4973055;28;821;-58
2023/09/25 08:37:30;;;;;;;;;;;;;;;27.67;100.00;99918.47;4973021;28;895;-59
2023/09/25 08:39:57;;;;;;;;;;;;;;;27.71;100.00;99930.34;4971560;28;1170;-59
2023/09/25 08:42:25;;;;;;;;;;;;;;;27.70;100.00;99928.81;4972834;28;974;-59
2023/09/25 08:44:52;;;;;;;;;;;;;;;27.90;100.00;99922.81;4972802;28;1894;-59
2023/09/25 08:47:24;;;;;;;;;;;;;;;28.16;100.00;99927.38;4972804;28;841;-59
2023/09/25 08:49:52;;;;;;;;;;;;;;;28.17;100.00;99933.88;4972928;28;824;-59
2023/09/25 08:52:21;;;;;;;;;;;;;;;28.15;100.00;99940.06;4972891;28;880;-59
2023/09/25 08:54:51;;;;;;;;;;;;;;;28.23;100.00;99941.06;4973039;28;887;-59
2023/09/25 08:57:18;;;;;;;;;;;;;;;28.43;100.00;99939.16;4955426;28;983;-59
2023/09/25 08:59:46;;;;;;;;;;;;;;;28.20;100.00;99953.47;4972779;28;856;-59
2023/09/25 09:02:13;;;;;;;;;;;;;;;28.46;100.00;99955.16;4972736;28;845;-60
2023/09/25 09:04:40;;;;;;;;;;;;;;;28.86;100.00;99952.91;4972634;28;1894;-60
2023/09/25 09:07:09;;;;;;;;;;;;;;;29.23;100.00;99943.09;4972624;28;939;-59
2023/09/25 09:09:36;;;;;;;;;;;;;;;28.61;100.00;99932.88;4972993;28;880;-59
2023/09/25 09:12:03;;;;;;;;;;;;;;;28.08;100.00;99940.63;4972676;28;952;-60
2023/09/25 09:14:40;;;;;;;;;;;;;;;27.75;100.00;99949.94;4972454;28;1245;-59
2023/09/25 09:17:07;;;;;;;;;;;;;;;27.93;100.00;99948.63;4972689;28;1257;-60
2023/09/25 09:19:37;;;;;;;;;;;;;;;28.49;96.42;99932.19;4972604;28;1142;-59
2023/09/25 09:22:05;;;;;;;;;;;;;;;28.92;94.22;99945.13;4972541;28;881;-59
2023/09/25 09:24:37;;;;;;;;;;;;;;;28.88;93.76;99944.63;4972537;28;1890;-59
2023/09/25 09:27:09;;;;;;;;;;;;;;;28.88;93.58;99934.00;4972512;28;840;-59
2023/09/25 09:29:36;;;;;;;;;;;;;;;28.65;93.63;99950.44;4972592;28;907;-59
2023/09/25 09:32:03;;;;;;;;;;;;;;;28.85;93.89;99943.63;4972415;28;939;-59
2023/09/25 09:34:30;;;;;;;;;;;;;;;29.01;91.82;99955.41;4972449;28;1750;-59
2023/09/25 09:36:56;;;;;;;;;;;;;;;29.02;91.29;99954.09;4972608;28;833;-59
2023/09/25 09:39:26;;;;;;;;;;;;;;;29.33;91.53;99952.84;4972521;28;825;-59
2023/09/25 09:41:56;;;;;;;;;;;;;;;29.20;91.92;99962.00;4972266;28;923;-59
2023/09/25 09:44:22;;;;;;;;;;;;;;;29.21;91.80;99955.03;4975658;28;1922;-59
2023/09/25 09:46:50;;;;;;;;;;;;;;;29.43;91.95;99954.06;4975786;28;898;-59
2023/09/25 09:49:21;;;;;;;;;;;;;;;29.36;90.60;99942.47;4975729;28;900;-59
2023/09/25 09:51:49;;;;;;;;;;;;;;;29.59;91.39;99949.50;4974499;28;1202;-59
2023/09/25 09:54:20;;;;;;;;;;;;;;;29.82;91.48;99949.31;4975599;28;883;-59
2023/09/25 09:56:49;;;;;;;;;;;;;;;29.76;90.51;99949.38;4975544;28;892;-59
2023/09/25 09:59:17;;;;;;;;;;;;;;;29.45;89.99;99948.63;4975722;28;840;-59
2023/09/25 10:01:47;;;;;;;;;;;;;;;29.35;90.73;99938.88;4975605;28;935;-59
2023/09/25 10:04:15;;;;;;;;;;;;;;;29.46;88.96;99963.63;4975400;28;1947;-59
2023/09/25 10:06:47;;;;;;;;;;;;;;;29.07;88.85;99945.53;4958001;28;1198;-59
2023/09/25 10:09:15;;;;;;;;;;;;;;;28.77;88.88;99945.47;4975228;28;826;-59
2023/09/25 10:11:45;;;;;;;;;;;;;;;28.62;89.37;99940.13;4975444;28;888;-60
2023/09/25 10:14:12;;;;;;;;;;;;;;;28.61;89.99;99941.41;4975220;28;1375;-59
2023/09/25 10:16:58;;;;;;;;;;;;;;;28.68;89.27;99932.34;4975371;28;852;-59
2023/09/25 10:19:45;;;;;;;;;;;;;;;29.01;88.45;99941.19;4975354;28;1216;-59
2023/09/25 10:22:12;;;;;;;;;;;;;;;29.26;87.91;99936.38;4975143;28;1269;-59
2023/09/25 10:24:41;;;;;;;;;;;;;;;29.42;87.25;99926.88;4975135;28;1919;-59
2023/09/25 10:27:10;;;;;;;;;;;;;;;29.87;86.51;99932.19;4975352;28;809;-59
2023/09/25 10:29:37;;;;;;;;;;;;;;;30.17;84.19;99919.13;4975037;28;833;-59
2023/09/25 10:32:11;;;;;;;;;;;;;;;30.38;77.95;99930.81;4974918;28;967;-59
2023/09/25 10:34:41;;;;;;;;;;;;;;;30.17;76.23;99921.97;4974923;28;924;-59
2023/09/25 10:37:13;;;;;;;;;;;;;;;30.18;75.88;99924.31;4973626;28;1280;-58
2023/09/25 10:39:40;;;;;;;;;;;;;;;30.13;74.65;99916.59;4974968;28;875;-59
2023/09/25 10:42:07;;;;;;;;;;;;;;;30.00;75.17;99910.78;4975092;28;848;-59
2023/09/25 10:44:37;;;;;;;;;;;;;;;29.75;72.21;99921.44;4974575;28;1886;-59
2023/09/25 10:47:07;;;;;;;;;;;;;;;29.38;72.77;99919.94;4975000;28;900;-59
2023/09/25 10:49:40;;;;;;;;;;;;;;;29.23;72.27;99923.19;4974610;28;840;-59
2023/09/25 10:52:06;;;;;;;;;;;;;;;29.00;73.78;99928.25;4974666;28;876;-59
2023/09/25 10:54:34;;;;;;;;;;;;;;;29.28;74.38;99917.44;4974307;28;874;-58
2023/09/25 10:57:01;;;;;;;;;;;;;;;29.50;72.84;99922.16;4957259;28;1335;-59
2023/09/25 10:59:28;;;;;;;;;;;;;;;29.58;71.05;99928.03;4974458;28;828;-59
2023/09/25 11:01:54;;;;;;;;;;;;;;;29.59;60.71;99923.13;4974371;28;875;-59
2023/09/25 11:04:21;;;;;;;;;;;;;;;29.69;60.58;99924.31;4974331;28;1882;-59
2023/09/25 11:06:48;;;;;;;;;;;;;;;29.68;61.20;99917.84;4974306;28;863;-59
2023/09/25 11:09:18;;;;;;;;;;;;;;;29.80;61.45;99923.44;4974250;28;876;-59
2023/09/25 11:11:45;;;;;;;;;;;;;;;29.88;61.27;99933.72;4974255;28;916;-59
2023/09/25 11:14:12;;;;;;;;;;;;;;;30.19;59.68;99925.06;4974069;28;1285;-59
2023/09/25 11:16:40;;;;;;;;;;;;;;;30.07;59.05;99933.00;4974077;28;915;-59
2023/09/25 11:19:11;;;;;;;;;;;;;;;29.69;60.56;99927.16;4974083;28;845;-59
2023/09/25 11:21:40;;;;;;;;;;;;;;;29.76;58.81;99931.53;4973986;28;849;-59
2023/09/25 11:24:10;;;;;;;;;;;;;;;29.69;60.09;99927.94;4974024;28;876;-59
2023/09/25 11:26:40;;;;;;;;;;;;;;;29.50;60.77;99930.69;4974048;28;864;-59
2023/09/25 11:29:07;;;;;;;;;;;;;;;29.22;59.51;99922.41;4973900;28;840;-59
2023/09/25 11:31:34;;;;;;;;;;;;;;;29.18;60.65;99932.53;4973968;28;947;-59
2023/09/25 11:34:00;;;;;;;;;;;;;;;28.77;58.19;99936.94;4973713;28;919;-59
2023/09/25 11:36:27;;;;;;;;;;;;;;;28.62;59.10;99934.44;4973889;28;850;-59
2023/09/25 11:38:54;;;;;;;;;;;;;;;28.59;60.79;99932.66;4973634;28;831;-60
2023/09/25 11:41:20;;;;;;;;;;;;;;;28.66;60.90;99932.09;4973710;28;874;-60
2023/09/25 11:43:47;;;;;;;;;;;;;;;29.11;58.74;99933.91;4973747;28;872;-59
2023/09/25 11:46:14;;;;;;;;;;;;;;;29.14;58.22;99912.13;4973739;28;1890;-59
2023/09/25 11:48:40;;;;;;;;;;;;;;;29.40;58.92;99928.72;4973995;28;872;-59
2023/09/25 11:51:07;;;;;;;;;;;;;;;29.34;60.00;99928.78;4973731;28;888;-59
2023/09/25 11:53:33;;;;;;;;;;;;;;;29.20;60.00;99927.88;4973711;28;927;-59
2023/09/25 11:56:03;;;;;;;;;;;;;;;29.09;59.55;99930.78;4973463;28;845;-59
2023/09/25 11:58:30;;;;;;;;;;;;;;;28.88;60.31;99947.47;4973320;28;1157;-59
2023/09/25 12:00:56;;;;;;;;;;;;;;;28.68;62.60;99934.41;4973392;28;814;-59
2023/09/25 12:03:23;;;;;;;;;;;;;;;28.89;62.49;99929.88;4973842;28;841;-59
2023/09/25 12:05:49;;;;;;;;;;;;;;;29.06;61.73;99937.50;4972727;28;1894;-59
2023/09/25 12:08:17;;;;;;;;;;;;;;;29.38;61.28;99946.34;4973371;28;888;-59
2023/09/25 12:10:45;;;;;;;;;;;;;;;29.52;60.21;99938.72;4973307;28;821;-60
2023/09/25 12:13:10;;;;;;;;;;;;;;;29.73;60.14;99929.75;4973387;28;1435;-59
2023/09/25 12:15:36;;;;;;;;;;;;;;;29.12;61.24;99938.28;4973412;28;872;-59
2023/09/25 12:18:03;;;;;;;;;;;;;;;28.93;62.42;99935.28;4973298;28;1333;-60
2023/09/25 12:20:30;;;;;;;;;;;;;;;28.96;62.59;99951.31;4973470;28;829;-59
2023/09/25 12:22:57;;;;;;;;;;;;;;;29.34;61.08;99933.69;4973250;28;840;-59
2023/09/25 12:25:24;;;;;;;;;;;;;;;29.51;59.83;99937.94;4973234;28;1973;-59
2023/09/25 12:27:51;;;;;;;;;;;;;;;29.28;61.05;99930.91;4973194;28;1312;-59
2023/09/25 12:30:19;;;;;;;;;;;;;;;28.97;62.19;99943.53;4973182;28;1287;-59
2023/09/25 12:32:47;;;;;;;;;;;;;;;28.48;62.74;99936.31;4973207;28;1375;-60
2023/09/25 12:35:16;;;;;;;;;;;;;;;28.49;62.63;99937.09;4973244;28;873;-59
2023/09/25 12:37:43;;;;;;;;;;;;;;;28.22;63.47;99930.22;4972884;28;900;-59
2023/09/25 12:40:11;;;;;;;;;;;;;;;28.09;63.97;99942.91;4972948;28;832;-59
2023/09/25 12:42:38;;;;;;;;;;;;;;;28.13;63.02;99936.19;4972903;28;860;-60
2023/09/25 12:45:06;;;;;;;;;;;;;;;28.00;62.14;99931.09;4972868;28;1891;-60
2023/09/25 12:47:33;;;;;;;;;;;;;;;27.73;63.35;99924.91;4972866;28;872;-59
2023/09/25 12:50:01;;;;;;;;;;;;;;;27.89;61.37;99944.00;4972941;28;836;-59
2023/09/25 12:52:26;;;;;;;;;;;;;;;28.27;58.48;99944.41;4972780;28;902;-59
2023/09/25 12:54:53;;;;;;;;;;;;;;;28.32;57.91;99944.91;4972820;28;824;-60
2023/09/25 12:57:22;;;;;;;;;;;;;;;28.25;56.82;99961.22;4972778;28;821;-59
2023/09/25 12:59:48;;;;;;;;;;;;;;;27.95;57.87;99949.66;4972727;28;915;-59
2023/09/25 13:02:15;;;;;;;;;;;;;;;27.64;59.39;99957.19;4972749;28;891;-59
2023/09/25 13:04:42;;;;;;;;;;;;;;;27.52;56.49;99958.50;4972651;28;1947;-59
2023/09/25 13:07:07;;;;;;;;;;;;;;;27.65;55.32;99964.44;4972641;28;868;-59
2023/09/25 13:09:33;;;;;;;;;;;;;;;27.52;55.19;99960.56;4972518;28;1231;-59
2023/09/25 13:12:00;;;;;;;;;;;;;;;27.37;56.77;99955.16;4972869;28;902;-59
2023/09/25 13:14:27;;;;;;;;;;;;;;;27.34;57.74;99956.97;4972466;28;1494;-59
2023/09/25 13:16:53;;;;;;;;;;;;;;;27.31;56.39;99963.66;4974059;28;828;-59
2023/09/25 13:19:20;;;;;;;;;;;;;;;27.17;55.95;99953.31;4976341;28;809;-60
2023/09/25 13:21:47;;;;;;;;;;;;;;;27.47;54.68;99960.03;4976351;28;825;-59
2023/09/25 13:24:15;;;;;;;;;;;;;;;27.74;51.09;99963.38;4976345;28;861;-60
2023/09/25 13:26:42;;;;;;;;;;;;;;;27.56;50.00;99969.59;4976370;28;829;-60
2023/09/25 13:29:09;;;;;;;;;;;;;;;27.77;50.44;99961.56;4976037;28;932;-60
2023/09/25 13:31:37;;;;;;;;;;;;;;;27.84;49.14;99958.94;4976187;28;907;-60
2023/09/25 13:34:04;;;;;;;;;;;;;;;27.58;48.41;99958.50;4976031;28;963;-59